Kawadi — CFG7257 — position and weather

sailwx.info

Track history (hours):
 
Tides and Currents Weather Stations Pressure Air Temp Water Temp Dewpoint Dewpoint Depression Visibility Wind Speed Wind Dir Waves Ship Positions

Kawadi

Last reported at 2018-Jul-17 16:30 UTC. Time now 2018-Jul-17 16:52 UTC.
Position N 50°57' W 127°41'.

Length 23 m; draft 3 m.

Type: Fishing. MMSI: 316005846.

Date/timePositionNaut miles runAvg speedWind from/ knotsBaromVisibWave heightAir tempDewpointWater temp
2018-Jul-17 16:30N 50°57' W 127°41'5 9.2
2018-Jul-17 16:00N 50°53' W 127°37'5 9.1
2018-Jul-17 15:30N 50°49' W 127°34'4 8.4
2018-Jul-17 15:00N 50°46' W 127°29'2 4.0
2018-Jul-17 14:30N 50°44' W 127°29'1 1.0
2018-Jul-17 13:22N 50°43' W 127°29'0 0.0
2018-Jul-17 08:32N 50°43' W 127°29'0 0.0
2018-Jul-17 08:08N 50°43' W 127°29'0 0.0
2018-Jul-17 07:59N 50°43' W 127°29'0 0.0
2018-Jul-17 07:06N 50°43' W 127°29'0 0.0
2018-Jul-17 06:58N 50°43' W 127°29'0 0.0
2018-Jul-17 03:23N 50°43' W 127°29'0 0.0
2018-Jul-17 02:55N 50°43' W 127°29'0 0.0
2018-Jul-17 01:51N 50°43' W 127°29'0 0.0
2018-Jul-16 18:20N 50°43' W 127°29'2 6.1
2018-Jul-16 18:00N 50°45' W 127°29'3 6.5
2018-Jul-16 17:31N 50°48' W 127°32'3 6.8
2018-Jul-16 17:00N 50°50' W 127°36'3 6.6
2018-Jul-16 16:31N 50°53' W 127°38'3 5.9
2018-Jul-16 16:00N 50°55' W 127°41'3 6.4
2018-Jul-16 15:31N 50°57' W 127°46'3 6.4
2018-Jul-16 15:01N 50°59' W 127°49'3 6.4
2018-Jul-16 14:30N 51°01' W 127°53'4 6.5
2018-Jul-16 13:57N 51°03' W 127°57'3 6.5
2018-Jul-16 13:30N 51°05' W 128°01'3 7.1
2018-Jul-16 13:00N 51°07' W 128°06'4 7.5
2018-Jul-16 12:30N 51°10' W 128°10'4 7.5
2018-Jul-16 12:00N 51°12' W 128°15'4 7.4
2018-Jul-16 11:31N 51°14' W 128°19'4 7.5
2018-Jul-16 11:01N 51°17' W 128°24'4 7.7
2018-Jul-16 10:31N 51°19' W 128°28'4 7.6
2018-Jul-16 10:01N 51°21' W 128°34'4 7.1
2018-Jul-16 09:30N 51°23' W 128°38'4 7.2
2018-Jul-16 09:00N 51°26' W 128°43'4 7.4
2018-Jul-16 08:30N 51°28' W 128°47'4 7.3
2018-Jul-16 08:00N 51°30' W 128°52'4 7.2
2018-Jul-16 07:31N 51°33' W 128°56'4 7.2
2018-Jul-16 07:00N 51°35' W 129°01'3 6.9
2018-Jul-16 06:30N 51°37' W 129°05'3 6.7
2018-Jul-16 06:00N 51°39' W 129°09'3 6.7
2018-Jul-16 05:30N 51°41' W 129°14'4 7.1
2018-Jul-16 05:00N 51°43' W 129°18'1 2.6
2018-Jul-16 04:30N 51°44' W 129°19'2 2.9
2018-Jul-16 03:59N 51°46' W 129°19'1 3.0
2018-Jul-16 03:31N 51°47' W 129°21'1 2.9
2018-Jul-16 03:00N 51°47' W 129°23'0 0.9
2018-Jul-16 02:30N 51°47' W 129°24'1 2.7
2018-Jul-16 01:59N 51°47' W 129°22'1 2.5
2018-Jul-16 01:28N 51°47' W 129°20'0 0.7
2018-Jul-16 01:00N 51°46' W 129°20'2 3.4
2018-Jul-16 00:30N 51°47' W 129°22'0 0.6
2018-Jul-15 23:54N 51°47' W 129°23'2 6.3
2018-Jul-15 23:30N 51°50' W 129°22'1 1.4
2018-Jul-15 23:00N 51°50' W 129°24'2 3.3
2018-Jul-15 22:30N 51°49' W 129°26'2 2.2
2018-Jul-15 21:33N 51°50' W 129°23'1 2.5
2018-Jul-15 21:19N 51°50' W 129°22'0 1.4
2018-Jul-15 21:00N 51°50' W 129°22'1 2.3
2018-Jul-15 20:30N 51°50' W 129°23'2 3.3
2018-Jul-15 20:00N 51°49' W 129°25'2 3.3
2018-Jul-15 19:30N 51°47' W 129°27'2 3.3
2018-Jul-15 19:00N 51°46' W 129°29'2 3.2
2018-Jul-15 18:30N 51°45' W 129°31'2 3.1
2018-Jul-15 18:00N 51°44' W 129°33'6 4.4
2018-Jul-15 16:45N 51°48' W 129°26'2 7.4
2018-Jul-15 16:30N 51°47' W 129°23'1 1.8
2018-Jul-15 16:00N 51°47' W 129°22'2 3.1
2018-Jul-15 15:30N 51°46' W 129°20'2 3.1
2018-Jul-15 15:00N 51°45' W 129°19'0 0.8
2018-Jul-15 14:31N 51°45' W 129°19'1 2.8
2018-Jul-15 14:01N 51°47' W 129°20'1 2.5
2018-Jul-15 13:31N 51°47' W 129°22'1 2.4
2018-Jul-15 13:00N 51°47' W 129°24'1 2.4
2018-Jul-15 12:30N 51°46' W 129°26'2 3.3
2018-Jul-15 12:00N 51°47' W 129°28'4 7.9
2018-Jul-15 11:30N 51°49' W 129°33'4 7.6
2018-Jul-15 11:00N 51°52' W 129°37'4 7.4
2018-Jul-15 10:30N 51°55' W 129°41'4 7.1
2018-Jul-15 10:00N 51°57' W 129°46'3 6.8
2018-Jul-15 09:30N 51°59' W 129°50'4 7.6
2018-Jul-15 09:00N 52°02' W 129°54'4 7.9
2018-Jul-15 08:30N 52°05' W 129°57'4 7.3
2018-Jul-15 08:00N 52°08' W 130°01'3 6.7
2018-Jul-15 07:30N 52°10' W 130°05'3 6.9
2018-Jul-15 07:00N 52°13' W 130°09'4 7.2
2018-Jul-15 06:30N 52°15' W 130°14'4 7.4
2018-Jul-15 06:00N 52°18' W 130°18'4 7.5
2018-Jul-15 05:30N 52°21' W 130°22'4 7.7
2018-Jul-15 05:00N 52°23' W 130°26'1 1.6
2018-Jul-15 04:12N 52°24' W 130°28'1 2.9
2018-Jul-15 04:00N 52°24' W 130°27'0 0.7
2018-Jul-15 03:26N 52°23' W 130°27'1 2.9
2018-Jul-15 03:00N 52°25' W 130°28'3 6.0
2018-Jul-15 02:30N 52°27' W 130°30'4 6.5
2018-Jul-15 01:58N 52°28' W 130°24'2 4.5
2018-Jul-15 01:30N 52°30' W 130°23'4 8.2
2018-Jul-15 01:00N 52°34' W 130°22'6 8.0
2018-Jul-15 00:17N 52°39' W 130°21'2 7.5
2018-Jul-15 00:00N 52°41' W 130°22'4 7.6
2018-Jul-14 23:30N 52°45' W 130°26'4 7.8
2018-Jul-14 23:00N 52°48' W 130°28'4 7.6
2018-Jul-14 22:30N 52°51' W 130°32'3 5.8
2018-Jul-14 21:58N 52°54' W 130°35'45 2.8
2018-Jul-14 05:56N 53°36' W 131°01'3 7.5
2018-Jul-14 05:29N 53°39' W 131°02'4 7.7
2018-Jul-14 04:56N 53°43' W 131°03'4 8.0
2018-Jul-14 04:29N 53°47' W 131°03'4 8.4
2018-Jul-14 03:58N 53°51' W 131°05'4 8.5
2018-Jul-14 03:30N 53°55' W 131°06'4 8.4
2018-Jul-14 03:00N 53°59' W 131°07'4 8.2
2018-Jul-14 02:30N 54°03' W 131°08'4 7.8
2018-Jul-14 02:00N 54°07' W 131°09'4 7.1
2018-Jul-14 01:30N 54°10' W 131°09'2 3.9
2018-Jul-14 01:00N 54°12' W 131°10'3 6.8
2018-Jul-14 00:31N 54°16' W 131°11'3 6.6
2018-Jul-14 00:00N 54°19' W 131°12'4 7.3
2018-Jul-13 23:30N 54°23' W 131°12'4 7.7
2018-Jul-13 23:00N 54°27' W 131°13'4 7.5
2018-Jul-13 22:30N 54°30' W 131°14'2 4.4
2018-Jul-13 21:56N 54°33' W 131°16'0 0.5
2018-Jul-13 21:25N 54°33' W 131°15'1 2.8
2018-Jul-13 20:55N 54°31' W 131°15'4 2.8
2018-Jul-13 19:26N 54°29' W 131°09'1 2.9
2018-Jul-13 19:00N 54°28' W 131°07'0 0.2
2018-Jul-13 18:29N 54°28' W 131°07'1 3.0
2018-Jul-13 18:00N 54°28' W 131°10'2 3.2
2018-Jul-13 17:30N 54°29' W 131°12'1 2.9
2018-Jul-13 17:00N 54°30' W 131°15'1 2.9
2018-Jul-13 16:30N 54°30' W 131°17'1 0.5
2018-Jul-13 14:35N 54°30' W 131°18'2 2.8
2018-Jul-13 13:58N 54°29' W 131°17'4 3.1
2018-Jul-13 12:46N 54°27' W 131°11'2 7.0
2018-Jul-13 12:30N 54°27' W 131°14'3 5.3
2018-Jul-13 11:59N 54°26' W 131°19'1 1.2
2018-Jul-13 11:19N 54°26' W 131°17'1 1.4
2018-Jul-13 10:52N 54°26' W 131°17'1 1.4
2018-Jul-13 10:27N 54°27' W 131°16'1 1.2
2018-Jul-13 09:58N 54°27' W 131°15'0 0.9
2018-Jul-13 09:30N 54°28' W 131°15'1 1.1
2018-Jul-13 08:59N 54°28' W 131°15'1 1.3
2018-Jul-13 08:30N 54°29' W 131°15'1 1.6
2018-Jul-13 07:40N 54°30' W 131°17'0 2.3
2018-Jul-13 07:30N 54°30' W 131°18'1 2.3
2018-Jul-13 06:55N 54°29' W 131°16'1 2.4
2018-Jul-13 06:27N 54°28' W 131°15'5 2.4
2018-Jul-13 04:10N 54°28' W 131°05'0 0.6
2018-Jul-13 04:00N 54°28' W 131°06'1 1.1
2018-Jul-13 03:29N 54°29' W 131°06'1 1.0
2018-Jul-13 02:59N 54°29' W 131°07'1 2.8
2018-Jul-13 02:30N 54°28' W 131°09'1 2.8
2018-Jul-13 02:00N 54°27' W 131°11'1 2.9
2018-Jul-13 01:30N 54°28' W 131°14'2 3.0
2018-Jul-13 01:00N 54°29' W 131°16'1 3.1
2018-Jul-13 00:30N 54°30' W 131°18'2 2.7
2018-Jul-12 23:46N 54°31' W 131°21'1 0.9
2018-Jul-12 22:37N 54°31' W 131°19'0 3.0
2018-Jul-12 22:30N 54°30' W 131°19'2 2.8
2018-Jul-12 21:58N 54°29' W 131°17'1 2.9
2018-Jul-12 21:28N 54°28' W 131°15'1 2.7
2018-Jul-12 20:58N 54°27' W 131°13'4 2.7
2018-Jul-12 19:35N 54°28' W 131°07'0 2.9
2018-Jul-12 19:30N 54°28' W 131°07'1 1.1
2018-Jul-12 18:55N 54°28' W 131°08'1 3.1
2018-Jul-12 18:30N 54°27' W 131°10'2 3.1
2018-Jul-12 18:00N 54°27' W 131°13'2 3.1
2018-Jul-12 17:30N 54°28' W 131°15'1 2.8
2018-Jul-12 16:59N 54°29' W 131°16'3 3.1
2018-Jul-12 16:05N 54°31' W 131°20'0 3.0
2018-Jul-12 15:58N 54°31' W 131°21'1 0.8
2018-Jul-12 14:31N 54°30' W 131°19'0 3.0
2018-Jul-12 14:29N 54°30' W 131°18'1 2.7
2018-Jul-12 14:00N 54°29' W 131°17'1 2.8
2018-Jul-12 13:30N 54°28' W 131°15'5 2.7
2018-Jul-12 11:34N 54°29' W 131°07'1 5.2
2018-Jul-12 11:27N 54°28' W 131°06'4 8.5
2018-Jul-12 11:00N 54°25' W 131°02'4 8.5
2018-Jul-12 10:30N 54°23' W 130°57'4 8.3
2018-Jul-12 10:00N 54°20' W 130°52'4 8.1
2018-Jul-12 09:29N 54°17' W 130°46'4 8.1
2018-Jul-12 09:00N 54°16' W 130°39'4 8.1
2018-Jul-12 08:30N 54°15' W 130°33'4 7.6
2018-Jul-12 08:00N 54°14' W 130°27'3 5.9
2018-Jul-12 07:30N 54°14' W 130°22'3 5.5
2018-Jul-12 07:00N 54°17' W 130°22'1 1.0
2018-Jul-12 06:30N 54°17' W 130°21'0 0.0
2018-Jul-12 06:00N 54°17' W 130°21'0 0.0
2018-Jul-12 05:30N 54°17' W 130°21'0 0.0
2018-Jul-12 05:00N 54°17' W 130°21'0 0.0
2018-Jul-12 04:29N 54°17' W 130°21'0 0.0
2018-Jul-12 04:00N 54°17' W 130°21'0 0.0
2018-Jul-12 03:30N 54°17' W 130°21'0 0.0
2018-Jul-12 03:00N 54°17' W 130°21'0 0.0
2018-Jul-12 02:30N 54°17' W 130°21'0 0.0
2018-Jul-12 02:00N 54°17' W 130°21'0 0.0
2018-Jul-12 01:30N 54°17' W 130°21'0 0.0
2018-Jul-12 01:00N 54°17' W 130°21'0 0.0
2018-Jul-12 00:30N 54°17' W 130°21'0 0.0
2018-Jul-12 00:00N 54°17' W 130°21'0 0.0
2018-Jul-11 23:30N 54°17' W 130°21'0 0.0
2018-Jul-11 23:00N 54°17' W 130°21'0 0.0
2018-Jul-11 22:30N 54°17' W 130°21'3 5.5
2018-Jul-11 22:00N 54°20' W 130°19'1 1.8
2018-Jul-11 21:30N 54°20' W 130°17'0 0.1
2018-Jul-11 21:00N 54°20' W 130°17'1 2.3
2018-Jul-11 20:30N 54°20' W 130°19'3 5.0
2018-Jul-11 20:00N 54°17' W 130°21'0 0.0
2018-Jul-11 19:30N 54°17' W 130°21'0 0.0
2018-Jul-11 19:00N 54°17' W 130°21'0 0.0
2018-Jul-11 18:30N 54°17' W 130°21'0 0.0
2018-Jul-11 18:00N 54°17' W 130°21'0 0.0
2018-Jul-11 17:30N 54°17' W 130°21'0 0.0
2018-Jul-11 17:00N 54°17' W 130°21'0 0.0
2018-Jul-11 16:30N 54°17' W 130°21'0 0.0
2018-Jul-11 16:00N 54°17' W 130°21'0 0.0
2018-Jul-11 15:30N 54°17' W 130°21'0 0.0
2018-Jul-11 15:00N 54°17' W 130°21'0 0.0
2018-Jul-11 14:30N 54°17' W 130°21'0 0.0
2018-Jul-11 14:00N 54°17' W 130°21'0 0.0
2018-Jul-11 13:30N 54°17' W 130°21'0 0.0
2018-Jul-11 13:00N 54°17' W 130°21'0 0.0
2018-Jul-11 12:30N 54°17' W 130°21'0 0.0
2018-Jul-11 12:00N 54°17' W 130°21'0 0.0
2018-Jul-11 11:30N 54°17' W 130°21'0 0.0
2018-Jul-11 11:00N 54°17' W 130°21'0 0.0
2018-Jul-11 10:29N 54°17' W 130°21'0 0.0
2018-Jul-11 10:00N 54°17' W 130°21'0 0.0
2018-Jul-11 09:30N 54°17' W 130°21'0 0.0
2018-Jul-11 09:00N 54°17' W 130°21'0 0.0
2018-Jul-11 08:30N 54°17' W 130°21'0 0.0
2018-Jul-11 08:00N 54°17' W 130°21'0 0.0
2018-Jul-11 07:30N 54°17' W 130°21'0 0.0
2018-Jul-11 07:00N 54°17' W 130°21'0 0.0
2018-Jul-11 06:30N 54°17' W 130°21'0 0.0
2018-Jul-11 06:00N 54°17' W 130°21'0 0.0
2018-Jul-11 05:30N 54°17' W 130°21'0 0.0
2018-Jul-11 05:00N 54°17' W 130°21'0 0.0
2018-Jul-11 04:30N 54°17' W 130°21'0 0.0
2018-Jul-11 04:00N 54°17' W 130°21'0 0.0
2018-Jul-11 03:30N 54°17' W 130°21'0 0.0
2018-Jul-11 03:00N 54°17' W 130°21'0 0.0
2018-Jul-11 02:30N 54°18' W 130°21'0 0.0
2018-Jul-11 02:00N 54°17' W 130°21'0 0.0
2018-Jul-11 01:30N 54°17' W 130°21'0 0.0
2018-Jul-11 01:00N 54°17' W 130°21'0 0.0
2018-Jul-11 00:30N 54°17' W 130°21'0 0.0
2018-Jul-11 00:00N 54°17' W 130°21'0 0.0
2018-Jul-10 23:30N 54°17' W 130°21'0 0.0
2018-Jul-10 23:00N 54°17' W 130°21'0 0.0
2018-Jul-10 22:30N 54°17' W 130°21'0 0.0
2018-Jul-10 22:00N 54°17' W 130°21'0 0.0
2018-Jul-10 21:30N 54°17' W 130°21'0 0.0
2018-Jul-10 21:00N 54°17' W 130°21'0 0.0
2018-Jul-10 20:30N 54°17' W 130°21'0 0.0
2018-Jul-10 20:00N 54°17' W 130°21'0 0.0
2018-Jul-10 19:30N 54°17' W 130°21'0 0.0
2018-Jul-10 19:00N 54°17' W 130°21'0 0.0
2018-Jul-10 18:30N 54°17' W 130°21'0 0.0
2018-Jul-10 18:00N 54°17' W 130°21'0 0.0
2018-Jul-10 17:28N 54°17' W 130°21'0 0.0
2018-Jul-10 16:57N 54°17' W 130°21'0 0.0
2018-Jul-10 16:04N 54°17' W 130°21'0 0.0
2018-Jul-10 15:54N 54°17' W 130°21'0 0.0
2018-Jul-10 15:29N 54°17' W 130°21'0 0.0
2018-Jul-10 15:00N 54°17' W 130°21'0 0.0
2018-Jul-10 14:22N 54°17' W 130°21'0 0.0
2018-Jul-10 13:44N 54°17' W 130°21'0 0.0
2018-Jul-10 13:30N 54°17' W 130°21'0 0.0
2018-Jul-10 13:00N 54°17' W 130°21'0 0.0
2018-Jul-10 12:30N 54°17' W 130°21'0 0.0
2018-Jul-10 12:00N 54°17' W 130°21'0 0.0
2018-Jul-10 11:25N 54°17' W 130°21'0 0.0
2018-Jul-10 11:00N 54°17' W 130°21'0 0.0
2018-Jul-10 10:30N 54°17' W 130°21'0 0.0
2018-Jul-10 09:58N 54°17' W 130°21'0 0.0
2018-Jul-10 09:30N 54°17' W 130°21'0 0.0
2018-Jul-10 09:00N 54°17' W 130°21'0 0.0
2018-Jul-10 08:29N 54°17' W 130°21'0 0.0
2018-Jul-10 08:00N 54°17' W 130°21'0 0.0
2018-Jul-10 07:30N 54°17' W 130°21'0 0.0
2018-Jul-10 07:00N 54°17' W 130°21'0 0.0
2018-Jul-10 06:30N 54°17' W 130°21'0 0.0
2018-Jul-10 06:00N 54°17' W 130°21'0 0.0
2018-Jul-10 05:30N 54°17' W 130°21'0 0.0
2018-Jul-10 05:00N 54°17' W 130°21'0 0.0
2018-Jul-10 04:30N 54°17' W 130°21'0 0.0
2018-Jul-10 04:00N 54°17' W 130°21'0 0.0
2018-Jul-10 03:30N 54°17' W 130°21'0 0.0
2018-Jul-10 03:00N 54°17' W 130°21'0 0.0
2018-Jul-10 02:29N 54°17' W 130°21'0 0.0
2018-Jul-10 02:00N 54°17' W 130°21'0 0.0
2018-Jul-10 01:29N 54°17' W 130°21'0 0.0
2018-Jul-10 01:00N 54°17' W 130°21'0 0.0
2018-Jul-10 00:29N 54°17' W 130°21'0 0.0
2018-Jul-10 00:00N 54°17' W 130°21'0 0.0
2018-Jul-09 23:30N 54°17' W 130°21'0 0.0
2018-Jul-09 22:49N 54°17' W 130°21'0 0.0
2018-Jul-09 22:20N 54°17' W 130°21'0 1.0
2018-Jul-09 22:00N 54°17' W 130°22'3 7.1
2018-Jul-09 21:30N 54°14' W 130°21'4 8.0
2018-Jul-09 21:00N 54°10' W 130°20'4 8.4
2018-Jul-09 20:30N 54°06' W 130°18'4 8.2
2018-Jul-09 20:00N 54°02' W 130°15'4 8.1
2018-Jul-09 19:30N 53°58' W 130°13'4 8.3
2018-Jul-09 19:00N 53°54' W 130°15'4 7.9
2018-Jul-09 18:30N 53°51' W 130°18'4 7.5
2018-Jul-09 18:00N 53°48' W 130°15'4 7.7
2018-Jul-09 17:30N 53°44' W 130°13'10 8.2
2018-Jul-09 16:17N 53°35' W 130°04'4 8.3
2018-Jul-09 15:49N 53°32' W 130°02'8 8.5
2018-Jul-09 14:55N 53°25' W 129°55'32 8.1
2018-Jul-09 10:57N 52°58' W 129°25'18 7.8
2018-Jul-09 08:38N 52°45' W 129°06'1 6.4
2018-Jul-09 08:30N 52°44' W 129°05'3 6.6
2018-Jul-09 08:00N 52°42' W 129°01'4 7.3
2018-Jul-09 07:30N 52°39' W 128°57'3 7.0
2018-Jul-09 07:00N 52°36' W 128°54'4 8.3
2018-Jul-09 06:29N 52°32' W 128°53'4 8.3
2018-Jul-09 06:00N 52°28' W 128°51'4 8.0
2018-Jul-09 05:30N 52°24' W 128°50'4 7.8
2018-Jul-09 05:00N 52°20' W 128°48'4 8.0
2018-Jul-09 04:30N 52°16' W 128°47'4 8.1
2018-Jul-09 04:00N 52°12' W 128°44'4 8.2
2018-Jul-09 03:30N 52°09' W 128°42'4 7.9
2018-Jul-09 03:00N 52°05' W 128°39'4 8.0
2018-Jul-09 02:30N 52°02' W 128°36'4 8.0
2018-Jul-09 02:00N 51°58' W 128°34'4 8.0
2018-Jul-09 01:31N 51°54' W 128°32'4 8.0
2018-Jul-09 01:00N 51°50' W 128°29'4 8.0
2018-Jul-09 00:30N 51°47' W 128°26'4 8.0
2018-Jul-09 00:01N 51°43' W 128°23'4 7.8
2018-Jul-08 23:31N 51°40' W 128°20'4 7.8
2018-Jul-08 23:00N 51°37' W 128°17'4 8.0
2018-Jul-08 22:30N 51°33' W 128°14'4 8.3
2018-Jul-08 22:01N 51°29' W 128°12'4 8.0
2018-Jul-08 21:30N 51°26' W 128°08'4 8.6
2018-Jul-08 21:00N 51°22' W 128°04'4 8.4
2018-Jul-08 20:30N 51°19' W 128°01'4 7.9
2018-Jul-08 20:00N 51°15' W 127°58'4 7.6
2018-Jul-08 19:30N 51°12' W 127°54'4 8.5
2018-Jul-08 19:00N 51°08' W 127°51'5 8.5
2018-Jul-08 18:28N 51°04' W 127°48'4 8.2
2018-Jul-08 18:01N 51°01' W 127°45'4 7.6
2018-Jul-08 17:30N 50°58' W 127°42'17 1.1
2018-Jul-08 02:09N 50°43' W 127°29'0 0.1
2018-Jul-08 00:09N 50°43' W 127°29'1 6.0
2018-Jul-08 00:01N 50°43' W 127°28'0 0.1
2018-Jul-07 23:29N 50°43' W 127°28'0 0.1
2018-Jul-07 23:00N 50°43' W 127°28'1 2.1
2018-Jul-07 22:29N 50°43' W 127°29'0 0.0
2018-Jul-07 22:00N 50°43' W 127°29'0 0.0
2018-Jul-07 21:16N 50°43' W 127°29'0 0.0
2018-Jul-07 19:04N 50°43' W 127°29'0 0.1
2018-Jul-07 19:00N 50°43' W 127°29'0 0.0
2018-Jul-07 18:30N 50°43' W 127°29'0 0.0
2018-Jul-07 18:00N 50°43' W 127°29'0 0.0
2018-Jul-07 17:30N 50°43' W 127°29'  
Track history (hours):
 
Tides and Currents Weather Stations Pressure Air Temp Water Temp Dewpoint Dewpoint Depression Visibility Wind Speed Wind Dir Waves Ship Positions

Kawadi

Last reported at 2018-Jul-17 16:30 UTC. Time now 2018-Jul-17 16:52 UTC.
Position N 50°57' W 127°41'.

Length 23 m; draft 3 m.

Type: Fishing. MMSI: 316005846.

Date/timePositionNaut miles runAvg speedWind from/ knotsBaromVisibWave heightAir tempDewpointWater temp
2018-Jul-17 16:30N 50°57' W 127°41'5 9.2
2018-Jul-17 16:00N 50°53' W 127°37'5 9.1
2018-Jul-17 15:30N 50°49' W 127°34'4 8.4
2018-Jul-17 15:00N 50°46' W 127°29'2 4.0
2018-Jul-17 14:30N 50°44' W 127°29'1 1.0
2018-Jul-17 13:22N 50°43' W 127°29'0 0.0
2018-Jul-17 08:32N 50°43' W 127°29'0 0.0
2018-Jul-17 08:08N 50°43' W 127°29'0 0.0
2018-Jul-17 07:59N 50°43' W 127°29'0 0.0
2018-Jul-17 07:06N 50°43' W 127°29'0 0.0
2018-Jul-17 06:58N 50°43' W 127°29'0 0.0
2018-Jul-17 03:23N 50°43' W 127°29'0 0.0
2018-Jul-17 02:55N 50°43' W 127°29'0 0.0
2018-Jul-17 01:51N 50°43' W 127°29'0 0.0
2018-Jul-16 18:20N 50°43' W 127°29'2 6.1
2018-Jul-16 18:00N 50°45' W 127°29'3 6.5
2018-Jul-16 17:31N 50°48' W 127°32'3 6.8
2018-Jul-16 17:00N 50°50' W 127°36'3 6.6
2018-Jul-16 16:31N 50°53' W 127°38'3 5.9
2018-Jul-16 16:00N 50°55' W 127°41'3 6.4
2018-Jul-16 15:31N 50°57' W 127°46'3 6.4
2018-Jul-16 15:01N 50°59' W 127°49'3 6.4
2018-Jul-16 14:30N 51°01' W 127°53'4 6.5
2018-Jul-16 13:57N 51°03' W 127°57'3 6.5
2018-Jul-16 13:30N 51°05' W 128°01'3 7.1
2018-Jul-16 13:00N 51°07' W 128°06'4 7.5
2018-Jul-16 12:30N 51°10' W 128°10'4 7.5
2018-Jul-16 12:00N 51°12' W 128°15'4 7.4
2018-Jul-16 11:31N 51°14' W 128°19'4 7.5
2018-Jul-16 11:01N 51°17' W 128°24'4 7.7
2018-Jul-16 10:31N 51°19' W 128°28'4 7.6
2018-Jul-16 10:01N 51°21' W 128°34'4 7.1
2018-Jul-16 09:30N 51°23' W 128°38'4 7.2
2018-Jul-16 09:00N 51°26' W 128°43'4 7.4
2018-Jul-16 08:30N 51°28' W 128°47'4 7.3
2018-Jul-16 08:00N 51°30' W 128°52'4 7.2
2018-Jul-16 07:31N 51°33' W 128°56'4 7.2
2018-Jul-16 07:00N 51°35' W 129°01'3 6.9
2018-Jul-16 06:30N 51°37' W 129°05'3 6.7
2018-Jul-16 06:00N 51°39' W 129°09'3 6.7
2018-Jul-16 05:30N 51°41' W 129°14'4 7.1
2018-Jul-16 05:00N 51°43' W 129°18'1 2.6
2018-Jul-16 04:30N 51°44' W 129°19'2 2.9
2018-Jul-16 03:59N 51°46' W 129°19'1 3.0
2018-Jul-16 03:31N 51°47' W 129°21'1 2.9
2018-Jul-16 03:00N 51°47' W 129°23'0 0.9
2018-Jul-16 02:30N 51°47' W 129°24'1 2.7
2018-Jul-16 01:59N 51°47' W 129°22'1 2.5
2018-Jul-16 01:28N 51°47' W 129°20'0 0.7
2018-Jul-16 01:00N 51°46' W 129°20'2 3.4
2018-Jul-16 00:30N 51°47' W 129°22'0 0.6
2018-Jul-15 23:54N 51°47' W 129°23'2 6.3
2018-Jul-15 23:30N 51°50' W 129°22'1 1.4
2018-Jul-15 23:00N 51°50' W 129°24'2 3.3
2018-Jul-15 22:30N 51°49' W 129°26'2 2.2
2018-Jul-15 21:33N 51°50' W 129°23'1 2.5
2018-Jul-15 21:19N 51°50' W 129°22'0 1.4
2018-Jul-15 21:00N 51°50' W 129°22'1 2.3
2018-Jul-15 20:30N 51°50' W 129°23'2 3.3
2018-Jul-15 20:00N 51°49' W 129°25'2 3.3
2018-Jul-15 19:30N 51°47' W 129°27'2 3.3
2018-Jul-15 19:00N 51°46' W 129°29'2 3.2
2018-Jul-15 18:30N 51°45' W 129°31'2 3.1
2018-Jul-15 18:00N 51°44' W 129°33'6 4.4
2018-Jul-15 16:45N 51°48' W 129°26'2 7.4
2018-Jul-15 16:30N 51°47' W 129°23'1 1.8
2018-Jul-15 16:00N 51°47' W 129°22'2 3.1
2018-Jul-15 15:30N 51°46' W 129°20'2 3.1
2018-Jul-15 15:00N 51°45' W 129°19'0 0.8
2018-Jul-15 14:31N 51°45' W 129°19'1 2.8
2018-Jul-15 14:01N 51°47' W 129°20'1 2.5
2018-Jul-15 13:31N 51°47' W 129°22'1 2.4
2018-Jul-15 13:00N 51°47' W 129°24'1 2.4
2018-Jul-15 12:30N 51°46' W 129°26'2 3.3
2018-Jul-15 12:00N 51°47' W 129°28'4 7.9
2018-Jul-15 11:30N 51°49' W 129°33'4 7.6
2018-Jul-15 11:00N 51°52' W 129°37'4 7.4
2018-Jul-15 10:30N 51°55' W 129°41'4 7.1
2018-Jul-15 10:00N 51°57' W 129°46'3 6.8
2018-Jul-15 09:30N 51°59' W 129°50'4 7.6
2018-Jul-15 09:00N 52°02' W 129°54'4 7.9
2018-Jul-15 08:30N 52°05' W 129°57'4 7.3
2018-Jul-15 08:00N 52°08' W 130°01'3 6.7
2018-Jul-15 07:30N 52°10' W 130°05'3 6.9
2018-Jul-15 07:00N 52°13' W 130°09'4 7.2
2018-Jul-15 06:30N 52°15' W 130°14'4 7.4
2018-Jul-15 06:00N 52°18' W 130°18'4 7.5
2018-Jul-15 05:30N 52°21' W 130°22'4 7.7
2018-Jul-15 05:00N 52°23' W 130°26'1 1.6
2018-Jul-15 04:12N 52°24' W 130°28'1 2.9
2018-Jul-15 04:00N 52°24' W 130°27'0 0.7
2018-Jul-15 03:26N 52°23' W 130°27'1 2.9
2018-Jul-15 03:00N 52°25' W 130°28'3 6.0
2018-Jul-15 02:30N 52°27' W 130°30'4 6.5
2018-Jul-15 01:58N 52°28' W 130°24'2 4.5
2018-Jul-15 01:30N 52°30' W 130°23'4 8.2
2018-Jul-15 01:00N 52°34' W 130°22'6 8.0
2018-Jul-15 00:17N 52°39' W 130°21'2 7.5
2018-Jul-15 00:00N 52°41' W 130°22'4 7.6
2018-Jul-14 23:30N 52°45' W 130°26'4 7.8
2018-Jul-14 23:00N 52°48' W 130°28'4 7.6
2018-Jul-14 22:30N 52°51' W 130°32'3 5.8
2018-Jul-14 21:58N 52°54' W 130°35'45 2.8
2018-Jul-14 05:56N 53°36' W 131°01'3 7.5
2018-Jul-14 05:29N 53°39' W 131°02'4 7.7
2018-Jul-14 04:56N 53°43' W 131°03'4 8.0
2018-Jul-14 04:29N 53°47' W 131°03'4 8.4
2018-Jul-14 03:58N 53°51' W 131°05'4 8.5
2018-Jul-14 03:30N 53°55' W 131°06'4 8.4
2018-Jul-14 03:00N 53°59' W 131°07'4 8.2
2018-Jul-14 02:30N 54°03' W 131°08'4 7.8
2018-Jul-14 02:00N 54°07' W 131°09'4 7.1
2018-Jul-14 01:30N 54°10' W 131°09'2 3.9
2018-Jul-14 01:00N 54°12' W 131°10'3 6.8
2018-Jul-14 00:31N 54°16' W 131°11'3 6.6
2018-Jul-14 00:00N 54°19' W 131°12'4 7.3
2018-Jul-13 23:30N 54°23' W 131°12'4 7.7
2018-Jul-13 23:00N 54°27' W 131°13'4 7.5
2018-Jul-13 22:30N 54°30' W 131°14'2 4.4
2018-Jul-13 21:56N 54°33' W 131°16'0 0.5
2018-Jul-13 21:25N 54°33' W 131°15'1 2.8
2018-Jul-13 20:55N 54°31' W 131°15'4 2.8
2018-Jul-13 19:26N 54°29' W 131°09'1 2.9
2018-Jul-13 19:00N 54°28' W 131°07'0 0.2
2018-Jul-13 18:29N 54°28' W 131°07'1 3.0
2018-Jul-13 18:00N 54°28' W 131°10'2 3.2
2018-Jul-13 17:30N 54°29' W 131°12'1 2.9
2018-Jul-13 17:00N 54°30' W 131°15'1 2.9
2018-Jul-13 16:30N 54°30' W 131°17'1 0.5
2018-Jul-13 14:35N 54°30' W 131°18'2 2.8
2018-Jul-13 13:58N 54°29' W 131°17'4 3.1
2018-Jul-13 12:46N 54°27' W 131°11'2 7.0
2018-Jul-13 12:30N 54°27' W 131°14'3 5.3
2018-Jul-13 11:59N 54°26' W 131°19'1 1.2
2018-Jul-13 11:19N 54°26' W 131°17'1 1.4
2018-Jul-13 10:52N 54°26' W 131°17'1 1.4
2018-Jul-13 10:27N 54°27' W 131°16'1 1.2
2018-Jul-13 09:58N 54°27' W 131°15'0 0.9
2018-Jul-13 09:30N 54°28' W 131°15'1 1.1
2018-Jul-13 08:59N 54°28' W 131°15'1 1.3
2018-Jul-13 08:30N 54°29' W 131°15'1 1.6
2018-Jul-13 07:40N 54°30' W 131°17'0 2.3
2018-Jul-13 07:30N 54°30' W 131°18'1 2.3
2018-Jul-13 06:55N 54°29' W 131°16'1 2.4
2018-Jul-13 06:27N 54°28' W 131°15'5 2.4
2018-Jul-13 04:10N 54°28' W 131°05'0 0.6
2018-Jul-13 04:00N 54°28' W 131°06'1 1.1
2018-Jul-13 03:29N 54°29' W 131°06'1 1.0
2018-Jul-13 02:59N 54°29' W 131°07'1 2.8
2018-Jul-13 02:30N 54°28' W 131°09'1 2.8
2018-Jul-13 02:00N 54°27' W 131°11'1 2.9
2018-Jul-13 01:30N 54°28' W 131°14'2 3.0
2018-Jul-13 01:00N 54°29' W 131°16'1 3.1
2018-Jul-13 00:30N 54°30' W 131°18'2 2.7
2018-Jul-12 23:46N 54°31' W 131°21'1 0.9
2018-Jul-12 22:37N 54°31' W 131°19'0 3.0
2018-Jul-12 22:30N 54°30' W 131°19'2 2.8
2018-Jul-12 21:58N 54°29' W 131°17'1 2.9
2018-Jul-12 21:28N 54°28' W 131°15'1 2.7
2018-Jul-12 20:58N 54°27' W 131°13'4 2.7
2018-Jul-12 19:35N 54°28' W 131°07'0 2.9
2018-Jul-12 19:30N 54°28' W 131°07'1 1.1
2018-Jul-12 18:55N 54°28' W 131°08'1 3.1
2018-Jul-12 18:30N 54°27' W 131°10'2 3.1
2018-Jul-12 18:00N 54°27' W 131°13'2 3.1
2018-Jul-12 17:30N 54°28' W 131°15'1 2.8
2018-Jul-12 16:59N 54°29' W 131°16'3 3.1
2018-Jul-12 16:05N 54°31' W 131°20'0 3.0
2018-Jul-12 15:58N 54°31' W 131°21'1 0.8
2018-Jul-12 14:31N 54°30' W 131°19'0 3.0
2018-Jul-12 14:29N 54°30' W 131°18'1 2.7
2018-Jul-12 14:00N 54°29' W 131°17'1 2.8
2018-Jul-12 13:30N 54°28' W 131°15'5 2.7
2018-Jul-12 11:34N 54°29' W 131°07'1 5.2
2018-Jul-12 11:27N 54°28' W 131°06'4 8.5
2018-Jul-12 11:00N 54°25' W 131°02'4 8.5
2018-Jul-12 10:30N 54°23' W 130°57'4 8.3
2018-Jul-12 10:00N 54°20' W 130°52'4 8.1
2018-Jul-12 09:29N 54°17' W 130°46'4 8.1
2018-Jul-12 09:00N 54°16' W 130°39'4 8.1
2018-Jul-12 08:30N 54°15' W 130°33'4 7.6
2018-Jul-12 08:00N 54°14' W 130°27'3 5.9
2018-Jul-12 07:30N 54°14' W 130°22'3 5.5
2018-Jul-12 07:00N 54°17' W 130°22'1 1.0
2018-Jul-12 06:30N 54°17' W 130°21'0 0.0
2018-Jul-12 06:00N 54°17' W 130°21'0 0.0
2018-Jul-12 05:30N 54°17' W 130°21'0 0.0
2018-Jul-12 05:00N 54°17' W 130°21'0 0.0
2018-Jul-12 04:29N 54°17' W 130°21'0 0.0
2018-Jul-12 04:00N 54°17' W 130°21'0 0.0
2018-Jul-12 03:30N 54°17' W 130°21'0 0.0
2018-Jul-12 03:00N 54°17' W 130°21'0 0.0
2018-Jul-12 02:30N 54°17' W 130°21'0 0.0
2018-Jul-12 02:00N 54°17' W 130°21'0 0.0
2018-Jul-12 01:30N 54°17' W 130°21'0 0.0
2018-Jul-12 01:00N 54°17' W 130°21'0 0.0
2018-Jul-12 00:30N 54°17' W 130°21'0 0.0
2018-Jul-12 00:00N 54°17' W 130°21'0 0.0
2018-Jul-11 23:30N 54°17' W 130°21'0 0.0
2018-Jul-11 23:00N 54°17' W 130°21'0 0.0
2018-Jul-11 22:30N 54°17' W 130°21'3 5.5
2018-Jul-11 22:00N 54°20' W 130°19'1 1.8
2018-Jul-11 21:30N 54°20' W 130°17'0 0.1
2018-Jul-11 21:00N 54°20' W 130°17'1 2.3
2018-Jul-11 20:30N 54°20' W 130°19'3 5.0
2018-Jul-11 20:00N 54°17' W 130°21'0 0.0
2018-Jul-11 19:30N 54°17' W 130°21'0 0.0
2018-Jul-11 19:00N 54°17' W 130°21'0 0.0
2018-Jul-11 18:30N 54°17' W 130°21'0 0.0
2018-Jul-11 18:00N 54°17' W 130°21'0 0.0
2018-Jul-11 17:30N 54°17' W 130°21'0 0.0
2018-Jul-11 17:00N 54°17' W 130°21'0 0.0
2018-Jul-11 16:30N 54°17' W 130°21'0 0.0
2018-Jul-11 16:00N 54°17' W 130°21'0 0.0
2018-Jul-11 15:30N 54°17' W 130°21'0 0.0
2018-Jul-11 15:00N 54°17' W 130°21'0 0.0
2018-Jul-11 14:30N 54°17' W 130°21'0 0.0
2018-Jul-11 14:00N 54°17' W 130°21'0 0.0
2018-Jul-11 13:30N 54°17' W 130°21'0 0.0
2018-Jul-11 13:00N 54°17' W 130°21'0 0.0
2018-Jul-11 12:30N 54°17' W 130°21'0 0.0
2018-Jul-11 12:00N 54°17' W 130°21'0 0.0
2018-Jul-11 11:30N 54°17' W 130°21'0 0.0
2018-Jul-11 11:00N 54°17' W 130°21'0 0.0
2018-Jul-11 10:29N 54°17' W 130°21'0 0.0
2018-Jul-11 10:00N 54°17' W 130°21'0 0.0
2018-Jul-11 09:30N 54°17' W 130°21'0 0.0
2018-Jul-11 09:00N 54°17' W 130°21'0 0.0
2018-Jul-11 08:30N 54°17' W 130°21'0 0.0
2018-Jul-11 08:00N 54°17' W 130°21'0 0.0
2018-Jul-11 07:30N 54°17' W 130°21'0 0.0
2018-Jul-11 07:00N 54°17' W 130°21'0 0.0
2018-Jul-11 06:30N 54°17' W 130°21'0 0.0
2018-Jul-11 06:00N 54°17' W 130°21'0 0.0
2018-Jul-11 05:30N 54°17' W 130°21'0 0.0
2018-Jul-11 05:00N 54°17' W 130°21'0 0.0
2018-Jul-11 04:30N 54°17' W 130°21'0 0.0
2018-Jul-11 04:00N 54°17' W 130°21'0 0.0
2018-Jul-11 03:30N 54°17' W 130°21'0 0.0
2018-Jul-11 03:00N 54°17' W 130°21'0 0.0
2018-Jul-11 02:30N 54°18' W 130°21'0 0.0
2018-Jul-11 02:00N 54°17' W 130°21'0 0.0
2018-Jul-11 01:30N 54°17' W 130°21'0 0.0
2018-Jul-11 01:00N 54°17' W 130°21'0 0.0
2018-Jul-11 00:30N 54°17' W 130°21'0 0.0
2018-Jul-11 00:00N 54°17' W 130°21'0 0.0
2018-Jul-10 23:30N 54°17' W 130°21'0 0.0
2018-Jul-10 23:00N 54°17' W 130°21'0 0.0
2018-Jul-10 22:30N 54°17' W 130°21'0 0.0
2018-Jul-10 22:00N 54°17' W 130°21'0 0.0
2018-Jul-10 21:30N 54°17' W 130°21'0 0.0
2018-Jul-10 21:00N 54°17' W 130°21'0 0.0
2018-Jul-10 20:30N 54°17' W 130°21'0 0.0
2018-Jul-10 20:00N 54°17' W 130°21'0 0.0
2018-Jul-10 19:30N 54°17' W 130°21'0 0.0
2018-Jul-10 19:00N 54°17' W 130°21'0 0.0
2018-Jul-10 18:30N 54°17' W 130°21'0 0.0
2018-Jul-10 18:00N 54°17' W 130°21'0 0.0
2018-Jul-10 17:28N 54°17' W 130°21'0 0.0
2018-Jul-10 16:57N 54°17' W 130°21'0 0.0
2018-Jul-10 16:04N 54°17' W 130°21'0 0.0
2018-Jul-10 15:54N 54°17' W 130°21'0 0.0
2018-Jul-10 15:29N 54°17' W 130°21'0 0.0
2018-Jul-10 15:00N 54°17' W 130°21'0 0.0
2018-Jul-10 14:22N 54°17' W 130°21'0 0.0
2018-Jul-10 13:44N 54°17' W 130°21'0 0.0
2018-Jul-10 13:30N 54°17' W 130°21'0 0.0
2018-Jul-10 13:00N 54°17' W 130°21'0 0.0
2018-Jul-10 12:30N 54°17' W 130°21'0 0.0
2018-Jul-10 12:00N 54°17' W 130°21'0 0.0
2018-Jul-10 11:25N 54°17' W 130°21'0 0.0
2018-Jul-10 11:00N 54°17' W 130°21'0 0.0
2018-Jul-10 10:30N 54°17' W 130°21'0 0.0
2018-Jul-10 09:58N 54°17' W 130°21'0 0.0
2018-Jul-10 09:30N 54°17' W 130°21'0 0.0
2018-Jul-10 09:00N 54°17' W 130°21'0 0.0
2018-Jul-10 08:29N 54°17' W 130°21'0 0.0
2018-Jul-10 08:00N 54°17' W 130°21'0 0.0
2018-Jul-10 07:30N 54°17' W 130°21'0 0.0
2018-Jul-10 07:00N 54°17' W 130°21'0 0.0
2018-Jul-10 06:30N 54°17' W 130°21'0 0.0
2018-Jul-10 06:00N 54°17' W 130°21'0 0.0
2018-Jul-10 05:30N 54°17' W 130°21'0 0.0
2018-Jul-10 05:00N 54°17' W 130°21'0 0.0
2018-Jul-10 04:30N 54°17' W 130°21'0 0.0
2018-Jul-10 04:00N 54°17' W 130°21'0 0.0
2018-Jul-10 03:30N 54°17' W 130°21'0 0.0
2018-Jul-10 03:00N 54°17' W 130°21'0 0.0
2018-Jul-10 02:29N 54°17' W 130°21'0 0.0
2018-Jul-10 02:00N 54°17' W 130°21'0 0.0
2018-Jul-10 01:29N 54°17' W 130°21'0 0.0
2018-Jul-10 01:00N 54°17' W 130°21'0 0.0
2018-Jul-10 00:29N 54°17' W 130°21'0 0.0
2018-Jul-10 00:00N 54°17' W 130°21'0 0.0
2018-Jul-09 23:30N 54°17' W 130°21'0 0.0
2018-Jul-09 22:49N 54°17' W 130°21'0 0.0
2018-Jul-09 22:20N 54°17' W 130°21'0 1.0
2018-Jul-09 22:00N 54°17' W 130°22'3 7.1
2018-Jul-09 21:30N 54°14' W 130°21'4 8.0
2018-Jul-09 21:00N 54°10' W 130°20'4 8.4
2018-Jul-09 20:30N 54°06' W 130°18'4 8.2
2018-Jul-09 20:00N 54°02' W 130°15'4 8.1
2018-Jul-09 19:30N 53°58' W 130°13'4 8.3
2018-Jul-09 19:00N 53°54' W 130°15'4 7.9
2018-Jul-09 18:30N 53°51' W 130°18'4 7.5
2018-Jul-09 18:00N 53°48' W 130°15'4 7.7
2018-Jul-09 17:30N 53°44' W 130°13'10 8.2
2018-Jul-09 16:17N 53°35' W 130°04'4 8.3
2018-Jul-09 15:49N 53°32' W 130°02'8 8.5
2018-Jul-09 14:55N 53°25' W 129°55'32 8.1
2018-Jul-09 10:57N 52°58' W 129°25'18 7.8
2018-Jul-09 08:38N 52°45' W 129°06'1 6.4
2018-Jul-09 08:30N 52°44' W 129°05'3 6.6
2018-Jul-09 08:00N 52°42' W 129°01'4 7.3
2018-Jul-09 07:30N 52°39' W 128°57'3 7.0
2018-Jul-09 07:00N 52°36' W 128°54'4 8.3
2018-Jul-09 06:29N 52°32' W 128°53'4 8.3
2018-Jul-09 06:00N 52°28' W 128°51'4 8.0
2018-Jul-09 05:30N 52°24' W 128°50'4 7.8
2018-Jul-09 05:00N 52°20' W 128°48'4 8.0
2018-Jul-09 04:30N 52°16' W 128°47'4 8.1
2018-Jul-09 04:00N 52°12' W 128°44'4 8.2
2018-Jul-09 03:30N 52°09' W 128°42'4 7.9
2018-Jul-09 03:00N 52°05' W 128°39'4 8.0
2018-Jul-09 02:30N 52°02' W 128°36'4 8.0
2018-Jul-09 02:00N 51°58' W 128°34'4 8.0
2018-Jul-09 01:31N 51°54' W 128°32'4 8.0
2018-Jul-09 01:00N 51°50' W 128°29'4 8.0
2018-Jul-09 00:30N 51°47' W 128°26'4 8.0
2018-Jul-09 00:01N 51°43' W 128°23'4 7.8
2018-Jul-08 23:31N 51°40' W 128°20'4 7.8
2018-Jul-08 23:00N 51°37' W 128°17'4 8.0
2018-Jul-08 22:30N 51°33' W 128°14'4 8.3
2018-Jul-08 22:01N 51°29' W 128°12'4 8.0
2018-Jul-08 21:30N 51°26' W 128°08'4 8.6
2018-Jul-08 21:00N 51°22' W 128°04'4 8.4
2018-Jul-08 20:30N 51°19' W 128°01'4 7.9
2018-Jul-08 20:00N 51°15' W 127°58'4 7.6
2018-Jul-08 19:30N 51°12' W 127°54'4 8.5
2018-Jul-08 19:00N 51°08' W 127°51'5 8.5
2018-Jul-08 18:28N 51°04' W 127°48'4 8.2
2018-Jul-08 18:01N 51°01' W 127°45'4 7.6
2018-Jul-08 17:30N 50°58' W 127°42'17 1.1
2018-Jul-08 02:09N 50°43' W 127°29'0 0.1
2018-Jul-08 00:09N 50°43' W 127°29'1 6.0
2018-Jul-08 00:01N 50°43' W 127°28'0 0.1
2018-Jul-07 23:29N 50°43' W 127°28'0 0.1
2018-Jul-07 23:00N 50°43' W 127°28'1 2.1
2018-Jul-07 22:29N 50°43' W 127°29'0 0.0
2018-Jul-07 22:00N 50°43' W 127°29'0 0.0
2018-Jul-07 21:16N 50°43' W 127°29'0 0.0
2018-Jul-07 19:04N 50°43' W 127°29'0 0.1
2018-Jul-07 19:00N 50°43' W 127°29'0 0.0
2018-Jul-07 18:30N 50°43' W 127°29'0 0.0
2018-Jul-07 18:00N 50°43' W 127°29'0 0.0
2018-Jul-07 17:30N 50°43' W 127°29'  

Dump ship's entire track history